Time;durP1;ratioP1;P1;durP2;ratioP2;P2;SDS_P1;SDS_P2;PMS_P1;PMS_P2;Temp;Humidity;BMP_temperature;BMP_pressure;BME280_temperature;BME280_humidity;BME280_pressure;Samples;Min_cycle;Max_cycle;Signal;HPM_P1;HPM_P2
2022/04/13 00:02:18;;;;;;;18.38;11.23;;;;;;;10.83;100.00;101048.47;10387079;28;20056;-71
2022/04/13 00:07:18;;;;;;;19.05;10.93;;;;;;;10.84;100.00;101044.66;10385640;28;20037;-71
2022/04/13 00:12:19;;;;;;;15.18;10.43;;;;;;;10.86;100.00;101043.31;10384382;28;20034;-70
2022/04/13 00:17:20;;;;;;;16.40;11.57;;;;;;;10.86;100.00;101046.06;10384612;28;20046;-71
2022/04/13 00:22:20;;;;;;;18.38;11.32;;;;;;;10.57;100.00;101009.53;10385308;28;20102;-71
2022/04/13 00:27:21;;;;;;;15.88;10.77;;;;;;;10.70;100.00;101039.47;10386821;28;20033;-72
2022/04/13 00:32:21;;;;;;;16.02;10.27;;;;;;;10.60;100.00;101032.97;10384420;28;20057;-71
2022/04/13 00:37:22;;;;;;;17.25;11.80;;;;;;;10.45;100.00;101039.06;10387989;28;20046;-71
2022/04/13 00:42:22;;;;;;;20.33;11.68;;;;;;;10.34;100.00;101053.75;10394665;28;20084;-71
2022/04/13 00:47:23;;;;;;;18.60;12.23;;;;;;;10.14;100.00;101046.75;10394436;28;20041;-72
2022/04/13 00:52:25;;;;;;;19.35;11.77;;;;;;;10.16;100.00;101054.78;10397567;28;20067;-71
2022/04/13 00:57:25;;;;;;;18.70;12.40;;;;;;;10.07;100.00;101048.84;10434535;28;20033;-72
2022/04/13 01:02:26;;;;;;;17.00;11.82;;;;;;;9.98;100.00;101059.38;10432739;28;20065;-72
2022/04/13 01:07:27;;;;;;;15.82;11.18;;;;;;;9.90;100.00;101063.38;10394535;28;20034;-71
2022/04/13 01:12:27;;;;;;;16.45;11.65;;;;;;;9.83;100.00;101068.19;10393366;28;20045;-71
2022/04/13 01:17:28;;;;;;;16.45;10.65;;;;;;;9.75;100.00;101074.06;10391888;28;20048;-71
2022/04/13 01:22:28;;;;;;;16.15;10.38;;;;;;;9.70;100.00;101085.78;10392372;28;20034;-71
2022/04/13 01:27:29;;;;;;;15.77;10.38;;;;;;;9.76;100.00;101091.41;10392318;28;20041;-72
2022/04/13 01:32:29;;;;;;;17.10;11.00;;;;;;;9.66;100.00;101083.78;10390608;28;20057;-71
2022/04/13 01:37:30;;;;;;;19.70;10.80;;;;;;;9.62;100.00;101088.91;10399397;28;20041;-72
2022/04/13 01:42:30;;;;;;;18.10;10.10;;;;;;;9.56;100.00;101100.06;10390763;28;20088;-71
2022/04/13 01:47:31;;;;;;;17.42;10.48;;;;;;;9.49;100.00;101095.53;10391976;28;20062;-72
2022/04/13 01:52:31;;;;;;;15.00;9.52;;;;;;;9.47;100.00;101103.19;10390538;28;20034;-71
2022/04/13 01:57:31;;;;;;;17.80;10.73;;;;;;;9.45;100.00;101113.56;10389559;28;20026;-71
2022/04/13 02:02:32;;;;;;;15.65;10.60;;;;;;;9.42;100.00;101125.03;10390365;28;20037;-72
2022/04/13 02:07:32;;;;;;;16.73;10.05;;;;;;;9.44;100.00;101111.88;10389836;28;20084;-72
2022/04/13 02:12:33;;;;;;;12.77;8.95;;;;;;;9.57;100.00;101118.22;10394677;28;20036;-72
2022/04/13 02:17:33;;;;;;;13.60;9.52;;;;;;;9.59;100.00;101107.81;10400782;28;20042;-72
2022/04/13 02:22:34;;;;;;;17.10;9.65;;;;;;;9.52;100.00;101115.34;10388431;28;20038;-73
2022/04/13 02:27:35;;;;;;;15.52;9.45;;;;;;;9.48;100.00;101115.00;10388248;28;20030;-72
2022/04/13 02:32:44;;;;;;;13.70;9.07;;;;;;;9.42;100.00;101122.28;10388869;28;20073;-71
2022/04/13 02:37:45;;;;;;;16.23;8.60;;;;;;;9.22;100.00;101099.84;10372356;28;20041;-71
2022/04/13 02:42:46;;;;;;;14.75;9.15;;;;;;;9.31;100.00;101122.31;10389322;28;20064;-71
2022/04/13 02:47:46;;;;;;;17.27;8.55;;;;;;;9.27;100.00;101125.53;10388728;28;20064;-71
2022/04/13 02:52:46;;;;;;;14.27;9.20;;;;;;;9.25;100.00;101130.44;10388433;28;20034;-71
2022/04/13 02:57:47;;;;;;;13.38;8.95;;;;;;;9.22;100.00;101133.66;10387339;28;20038;-72
2022/04/13 03:02:47;;;;;;;11.98;9.25;;;;;;;9.20;100.00;101130.31;10388391;28;20034;-71
2022/04/13 03:07:48;;;;;;;12.68;9.27;;;;;;;9.24;100.00;101147.13;10388167;28;20446;-71
2022/04/13 03:12:48;;;;;;;14.07;9.65;;;;;;;9.32;100.00;101155.03;10387863;28;20060;-71
2022/04/13 03:17:50;;;;;;;11.68;8.60;;;;;;;9.37;100.00;101141.41;10370340;28;20046;-71
2022/04/13 03:22:51;;;;;;;14.57;9.40;;;;;;;9.52;100.00;101154.66;10386509;28;20539;-72
2022/04/13 03:27:51;;;;;;;14.18;9.82;;;;;;;9.49;100.00;101150.50;10421763;28;20026;-72
2022/04/13 03:32:52;;;;;;;15.20;9.23;;;;;;;9.41;100.00;101158.28;10389794;28;20045;-72
2022/04/13 03:37:52;;;;;;;17.55;10.27;;;;;;;9.30;100.00;101154.44;10387391;28;20042;-72
2022/04/13 03:42:53;;;;;;;16.15;10.00;;;;;;;9.27;100.00;101174.16;10387537;28;20092;-72
2022/04/13 03:47:53;;;;;;;14.40;10.15;;;;;;;9.31;100.00;101175.34;10387115;28;20040;-72
2022/04/13 03:52:54;;;;;;;13.57;10.45;;;;;;;9.34;100.00;101196.00;10386105;28;20038;-72
2022/04/13 03:57:54;;;;;;;14.93;10.18;;;;;;;9.37;100.00;101188.13;10386650;28;20061;-71
2022/04/13 04:02:55;;;;;;;19.67;9.95;;;;;;;9.36;100.00;101205.69;10386076;28;20030;-72
2022/04/13 04:07:56;;;;;;;17.73;10.07;;;;;;;9.34;100.00;101207.84;10386623;28;20049;-71
2022/04/13 04:12:56;;;;;;;17.85;11.43;;;;;;;9.29;100.00;101199.47;10391921;28;20037;-70
2022/04/13 04:17:57;;;;;;;21.38;11.93;;;;;;;9.45;100.00;101209.75;10428258;28;20046;-71
2022/04/13 04:22:57;;;;;;;15.75;10.80;;;;;;;9.62;100.00;101209.03;10433436;28;20045;-70
2022/04/13 04:27:58;;;;;;;17.08;11.35;;;;;;;9.79;100.00;101226.47;10434892;28;20041;-73
2022/04/13 04:32:58;;;;;;;16.52;10.68;;;;;;;9.98;100.00;101229.09;10433311;28;20092;-71
2022/04/13 04:37:59;;;;;;;16.77;10.90;;;;;;;10.08;100.00;101223.81;10434203;28;20046;-71
2022/04/13 04:43:00;;;;;;;17.67;10.85;;;;;;;10.16;100.00;101231.69;10409283;28;20038;-71
2022/04/13 04:48:04;;;;;;;19.85;11.13;;;;;;;10.24;100.00;101228.56;10391880;28;20053;-71
2022/04/13 04:53:05;;;;;;;17.15;10.80;;;;;;;10.34;100.00;101232.63;10393538;28;20377;-71
2022/04/13 04:58:08;;;;;;;17.80;11.38;;;;;;;10.44;100.00;101238.34;10393665;28;20034;-71
2022/04/13 05:03:08;;;;;;;19.73;11.50;;;;;;;10.49;100.00;101242.03;10416926;28;20101;-71
2022/04/13 05:08:09;;;;;;;17.30;10.25;;;;;;;10.51;100.00;101247.28;10434859;28;20049;-71
2022/04/13 05:13:09;;;;;;;17.65;11.52;;;;;;;10.42;100.00;101244.09;10425673;28;20045;-71
2022/04/13 05:18:10;;;;;;;17.27;11.88;;;;;;;10.55;100.00;101253.16;10375304;28;20048;-70
2022/04/13 05:23:10;;;;;;;26.50;11.77;;;;;;;10.58;100.00;101263.66;10391317;28;20077;-71
2022/04/13 05:28:12;;;;;;;15.77;11.10;;;;;;;10.58;100.00;101272.75;10391124;28;20037;-71
2022/04/13 05:33:12;;;;;;;25.35;12.13;;;;;;;10.62;100.00;101279.44;10415749;28;20049;-71
2022/04/13 05:38:13;;;;;;;23.58;12.30;;;;;;;10.73;100.00;101282.41;10432194;28;20038;-70
2022/04/13 05:43:13;;;;;;;25.98;12.70;;;;;;;10.82;100.00;101283.69;10432044;28;20038;-72
2022/04/13 05:48:15;;;;;;;20.58;12.32;;;;;;;10.83;100.00;101280.69;10432327;28;20029;-71
2022/04/13 05:53:15;;;;;;;21.17;12.52;;;;;;;10.88;100.00;101290.97;10431366;28;20030;-71
2022/04/13 05:58:16;;;;;;;28.50;12.13;;;;;;;10.20;100.00;101186.09;10428656;28;20064;-71
2022/04/13 06:03:17;;;;;;;18.58;12.13;;;;;;;11.07;100.00;101306.19;10391099;28;20126;-71
2022/04/13 06:08:18;;;;;;;18.80;13.75;;;;;;;11.22;100.00;101300.13;10391577;28;20038;-71
2022/04/13 06:13:18;;;;;;;23.80;11.15;;;;;;;11.07;100.00;101259.34;10389955;28;20068;-71
2022/04/13 06:18:18;;;;;;;21.67;12.35;;;;;;;11.42;100.00;101309.84;10402375;28;20046;-71
2022/04/13 06:23:19;;;;;;;16.83;11.48;;;;;;;11.36;100.00;101319.13;10421184;28;20315;-71
2022/04/13 06:28:19;;;;;;;18.88;12.13;;;;;;;11.34;100.00;101327.63;10430584;28;20037;-71
2022/04/13 06:33:20;;;;;;;22.48;14.00;;;;;;;11.39;100.00;101337.91;10429728;28;20049;-71
2022/04/13 06:38:20;;;;;;;22.13;12.85;;;;;;;11.44;100.00;101347.13;10404174;28;20048;-70
2022/04/13 06:43:21;;;;;;;28.02;14.35;;;;;;;11.55;100.00;101347.28;10388214;28;20041;-71
2022/04/13 06:48:21;;;;;;;21.80;13.50;;;;;;;11.81;100.00;101362.38;10389033;28;20038;-71
2022/04/13 06:53:22;;;;;;;24.88;13.82;;;;;;;12.06;100.00;101375.75;10437965;28;20041;-71
2022/04/13 06:58:22;;;;;;;22.92;13.00;;;;;;;12.37;100.00;101373.47;10447993;28;20036;-71
2022/04/13 07:03:24;;;;;;;20.30;12.85;;;;;;;12.68;100.00;101375.53;10449288;28;20059;-71
2022/04/13 07:08:24;;;;;;;27.77;12.82;;;;;;;13.21;100.00;101391.63;10448482;28;20032;-71
2022/04/13 07:13:25;;;;;;;19.63;13.10;;;;;;;13.44;100.00;101388.63;10445964;28;20057;-71
2022/04/13 07:18:25;;;;;;;26.45;13.77;;;;;;;13.52;100.00;101398.38;10448074;28;20017;-70
2022/04/13 07:23:26;;;;;;;23.02;12.27;;;;;;;13.75;100.00;101391.69;10448858;28;20412;-71
2022/04/13 07:28:26;;;;;;;18.15;11.82;;;;;;;13.77;100.00;101386.72;10458219;28;20025;-71
2022/04/13 07:33:27;;;;;;;21.15;11.45;;;;;;;13.87;100.00;101395.13;10470325;28;20052;-70
2022/04/13 07:38:27;;;;;;;26.27;12.25;;;;;;;14.10;100.00;101399.44;10463581;28;20049;-70
2022/04/13 07:43:28;;;;;;;20.45;10.13;;;;;;;14.26;100.00;101413.41;10444811;28;20033;-71
2022/04/13 07:48:29;;;;;;;13.60;9.32;;;;;;;14.10;100.00;101379.25;10447962;28;20026;-71
2022/04/13 07:53:30;;;;;;;18.17;9.63;;;;;;;14.41;100.00;101446.75;10447356;28;20040;-71
2022/04/13 07:58:30;;;;;;;18.85;11.00;;;;;;;14.60;100.00;101430.56;10448094;28;20034;-71
2022/04/13 08:03:30;;;;;;;17.25;9.60;;;;;;;14.60;100.00;101440.81;10445490;28;20033;-69
2022/04/13 08:08:31;;;;;;;17.77;8.85;;;;;;;14.97;100.00;101451.84;10446500;28;20038;-70
2022/04/13 08:13:32;;;;;;;20.38;9.68;;;;;;;15.28;100.00;101450.03;10446833;28;20029;-70
2022/04/13 08:18:32;;;;;;;15.18;9.40;;;;;;;15.61;100.00;101456.22;10442054;28;20034;-70
2022/04/13 08:23:33;;;;;;;17.58;8.63;;;;;;;15.71;100.00;101466.53;10447786;28;20025;-70
2022/04/13 08:28:33;;;;;;;14.95;9.05;;;;;;;15.51;100.00;101468.13;10438635;28;20055;-70
2022/04/13 08:33:34;;;;;;;15.57;9.75;;;;;;;15.49;100.00;101475.88;10445143;28;20046;-70
2022/04/13 08:38:36;;;;;;;16.30;9.32;;;;;;;15.06;100.00;101399.47;10427876;28;20041;-70
2022/04/13 08:43:44;;;;;;;13.35;8.32;;;;;;;15.56;100.00;101477.56;10395125;28;20042;-71
2022/04/13 08:48:45;;;;;;;13.30;8.30;;;;;;;15.49;100.00;101472.28;10384549;28;20091;-70
2022/04/13 08:53:55;;;;;;;16.48;8.63;;;;;;;15.62;100.00;101491.19;10368752;28;20023;-70
2022/04/13 08:58:58;;;;;;;15.50;8.65;;;;;;;15.76;100.00;101488.75;10389733;28;20026;-70
2022/04/13 09:04:00;;;;;;;19.15;8.77;;;;;;;15.60;100.00;101498.94;10430962;28;20055;-70
2022/04/13 09:09:01;;;;;;;18.05;10.20;;;;;;;15.54;100.00;101502.81;10450472;28;20092;-70
2022/04/13 09:14:02;;;;;;;17.88;8.32;;;;;;;15.98;100.00;101496.00;10449949;28;20037;-70
2022/04/13 09:19:03;;;;;;;13.82;8.45;;;;;;;16.04;100.00;101512.44;10448573;28;20033;-70
2022/04/13 09:24:04;;;;;;;20.23;8.52;;;;;;;16.49;100.00;101498.81;10454720;28;20108;-70
2022/04/13 09:29:05;;;;;;;14.35;8.65;;;;;;;16.75;100.00;101492.09;10419193;28;20029;-70
2022/04/13 09:34:05;;;;;;;12.38;7.03;;;;;;;16.66;100.00;101499.38;10399232;28;20061;-70
2022/04/13 09:39:06;;;;;;;13.02;6.43;;;;;;;16.52;100.00;101499.09;10390854;28;20042;-70
2022/04/13 09:44:18;;;;;;;18.65;8.07;;;;;;;16.83;100.00;101504.66;10395098;28;20060;-70
2022/04/13 09:49:20;;;;;;;15.85;7.50;;;;;;;16.80;100.00;101507.13;10416412;28;20053;-70
2022/04/13 09:54:23;;;;;;;13.98;6.45;;;;;;;17.02;100.00;101517.97;10416988;28;20052;-70
2022/04/13 09:59:32;;;;;;;10.50;6.43;;;;;;;17.29;100.00;101512.03;10416188;28;20056;-70
2022/04/13 10:04:35;;;;;;;10.85;5.85;;;;;;;17.36;100.00;101509.75;10417366;28;20029;-70
2022/04/13 10:09:36;;;;;;;12.07;5.75;;;;;;;17.73;100.00;101512.06;10416477;28;20089;-70
2022/04/13 10:14:36;;;;;;;13.10;7.55;;;;;;;17.69;100.00;101515.72;10418778;28;20045;-70
2022/04/13 10:19:37;;;;;;;12.18;8.05;;;;;;;17.35;100.00;101399.56;10395334;28;20124;-70
2022/04/13 10:24:39;;;;;;;11.05;6.25;;;;;;;17.73;100.00;101472.25;10417216;28;20050;-71
2022/04/13 10:29:41;;;;;;;9.50;4.80;;;;;;;17.95;100.00;101510.88;10418809;28;20033;-72
2022/04/13 10:34:49;;;;;;;10.45;7.03;;;;;;;18.25;100.00;101459.66;10419112;28;20072;-71
2022/04/13 10:39:51;;;;;;;9.48;5.35;;;;;;;18.45;100.00;101488.47;10399793;28;20044;-71
2022/04/13 10:44:58;;;;;;;11.15;6.35;;;;;;;18.86;100.00;101505.66;10416021;28;20813;-72
2022/04/13 10:50:01;;;;;;;6.35;4.22;;;;;;;19.21;100.00;101494.41;10418465;28;20040;-72
2022/04/13 10:55:08;;;;;;;9.30;4.43;;;;;;;19.17;100.00;101515.69;10420778;28;20120;-71
2022/04/13 11:00:12;;;;;;;9.27;3.80;;;;;;;19.67;97.60;101513.34;10407158;28;20479;-72
2022/04/13 11:05:12;;;;;;;5.40;3.10;;;;;;;18.83;96.88;101513.78;10429509;28;20397;-71
2022/04/13 11:10:18;;;;;;;7.70;3.67;;;;;;;18.79;98.61;101519.16;10422919;28;20082;-73
2022/04/13 11:15:36;;;;;;;9.75;4.30;;;;;;;19.36;99.19;101520.16;10389590;28;20034;-72
2022/04/13 11:20:37;;;;;;;9.38;4.43;;;;;;;20.06;96.56;101526.25;10427314;28;20500;-73
2022/04/13 11:25:53;;;;;;;8.63;4.72;;;;;;;20.28;94.62;101523.66;10429266;28;20469;-72
2022/04/13 11:31:01;;;;;;;7.80;4.82;;;;;;;20.44;93.08;101527.00;10428582;28;20042;-70
2022/04/13 11:36:02;;;;;;;8.43;4.60;;;;;;;20.04;92.19;101536.91;10426850;28;20113;-71
2022/04/13 11:41:03;;;;;;;8.55;3.72;;;;;;;19.76;94.12;101533.91;10425926;28;20095;-71
2022/04/13 11:46:03;;;;;;;7.25;4.20;;;;;;;19.56;93.68;101540.59;10386618;28;20025;-71
2022/04/13 11:51:23;;;;;;;7.65;3.83;;;;;;;19.73;91.74;101540.13;10386421;28;20359;-71
2022/04/13 11:56:31;;;;;;;6.60;3.13;;;;;;;19.49;90.62;101545.69;10424180;28;20029;-71
2022/04/13 12:01:33;;;;;;;5.32;2.53;;;;;;;19.25;92.13;101560.50;10425661;28;20045;-71
2022/04/13 12:06:34;;;;;;;5.43;2.95;;;;;;;18.88;92.63;101583.50;10427031;28;20095;-71
2022/04/13 12:11:39;;;;;;;9.38;4.38;;;;;;;18.13;95.88;101560.34;10409718;28;20038;-70
2022/04/13 12:16:41;;;;;;;6.07;2.77;;;;;;;17.99;99.50;101586.38;10427581;28;20040;-70
2022/04/13 12:21:41;;;;;;;10.07;3.10;;;;;;;17.91;97.36;101577.47;10426967;28;20534;-70
2022/04/13 12:26:44;;;;;;;8.15;3.25;;;;;;;17.82;97.65;101587.53;10438016;28;20061;-70
2022/04/13 12:31:52;;;;;;;8.90;2.42;;;;;;;18.30;96.78;101571.09;10447533;28;20102;-71
2022/04/13 12:37:02;;;;;;;7.13;2.40;;;;;;;18.73;93.37;101585.28;10454885;28;20044;-71
2022/04/13 12:42:04;;;;;;;3.83;1.80;;;;;;;18.91;87.76;101564.22;10449735;28;20420;-71
2022/04/13 12:47:05;;;;;;;4.50;1.85;;;;;;;19.22;85.40;101560.25;10448898;28;20026;-71
2022/04/13 12:52:06;;;;;;;9.85;2.40;;;;;;;19.04;86.86;101576.66;10462103;28;20032;-70
2022/04/13 12:57:07;;;;;;;6.60;2.30;;;;;;;18.53;87.41;101585.44;10453568;28;20036;-72
2022/04/13 13:02:07;;;;;;;7.80;2.30;;;;;;;18.55;87.06;101584.00;10452323;28;20139;-70
2022/04/13 13:07:08;;;;;;;8.10;2.30;;;;;;;18.18;88.96;101595.72;10452370;28;20021;-70
2022/04/13 13:12:15;;;;;;;6.18;1.88;;;;;;;17.95;89.90;101603.63;10455560;28;20037;-70
2022/04/13 13:17:17;;;;;;;10.77;2.45;;;;;;;17.88;92.50;101603.13;10432622;28;20029;-70
2022/04/13 13:22:24;;;;;;;7.50;2.55;;;;;;;17.51;93.37;101609.94;10432117;28;20040;-71
2022/04/13 13:27:31;;;;;;;5.88;1.75;;;;;;;17.39;93.75;101620.53;10432137;28;20067;-71
2022/04/13 13:32:36;;;;;;;6.68;1.67;;;;;;;17.07;93.94;101621.69;10395156;28;20046;-71
2022/04/13 13:37:40;;;;;;;4.55;1.00;;;;;;;17.15;91.77;101617.50;10404956;28;20530;-70
2022/04/13 13:42:44;;;;;;;4.20;0.70;;;;;;;16.74;87.56;101562.75;10433119;28;20030;-70
2022/04/13 13:47:45;;;;;;;7.05;0.90;;;;;;;17.13;88.27;101616.97;10397247;28;20030;-70
2022/04/13 13:52:45;;;;;;;3.33;0.80;;;;;;;17.21;88.29;101619.16;10391993;28;20033;-70
2022/04/13 13:57:45;;;;;;;3.38;0.85;;;;;;;17.29;88.25;101613.03;10391504;28;20026;-71
2022/04/13 14:02:52;;;;;;;4.30;1.20;;;;;;;17.18;89.28;101632.81;10389819;28;20026;-73
2022/04/13 14:07:54;;;;;;;4.97;1.10;;;;;;;17.07;90.89;101632.00;10406697;28;20397;-71
2022/04/13 14:12:54;;;;;;;6.15;1.52;;;;;;;16.63;89.13;101649.19;10412919;28;20057;-70
2022/04/13 14:17:54;;;;;;;3.25;0.90;;;;;;;16.21;90.92;101648.28;10448738;28;20040;-70
2022/04/13 14:22:55;;;;;;;3.63;0.90;;;;;;;16.22;91.52;101666.63;10449982;28;20041;-70
2022/04/13 14:27:56;;;;;;;3.67;1.23;;;;;;;16.18;92.58;101662.72;10447331;28;20045;-70
2022/04/13 14:32:57;;;;;;;5.07;1.38;;;;;;;16.12;97.40;101669.34;10448018;28;20050;-71
2022/04/13 14:37:57;;;;;;;4.90;1.08;;;;;;;15.68;99.06;101676.06;10442669;28;20037;-70
2022/04/13 14:42:58;;;;;;;6.07;1.80;;;;;;;15.51;100.00;101698.47;10449768;28;20040;-69
2022/04/13 14:47:58;;;;;;;10.15;1.77;;;;;;;15.06;100.00;101688.69;10448848;28;20025;-69
2022/04/13 14:52:59;;;;;;;9.48;2.38;;;;;;;14.76;100.00;101694.81;10444893;28;20063;-70
2022/04/13 14:57:59;;;;;;;9.57;2.90;;;;;;;14.80;100.00;101690.41;10421633;28;20076;-70
2022/04/13 15:03:00;;;;;;;11.23;2.70;;;;;;;14.76;100.00;101699.50;10428471;28;20025;-69
2022/04/13 15:08:00;;;;;;;12.52;3.90;;;;;;;14.81;100.00;101685.72;10429203;28;20409;-69
2022/04/13 15:13:01;;;;;;;10.18;2.83;;;;;;;14.89;100.00;101683.28;10428095;28;20037;-69
2022/04/13 15:18:01;;;;;;;14.23;3.53;;;;;;;15.16;100.00;101667.69;10427985;28;20033;-70
2022/04/13 15:23:01;;;;;;;12.27;2.65;;;;;;;15.36;100.00;101691.97;10427378;28;20052;-69
2022/04/13 15:28:02;;;;;;;8.93;2.03;;;;;;;15.41;100.00;101689.25;10427380;28;20030;-70
2022/04/13 15:33:03;;;;;;;6.65;1.40;;;;;;;15.19;100.00;101692.13;10426071;28;20049;-69
2022/04/13 15:38:03;;;;;;;9.10;2.63;;;;;;;15.34;100.00;101690.31;10427833;28;20038;-71
2022/04/13 15:43:03;;;;;;;10.90;2.80;;;;;;;15.44;100.00;101705.34;10427095;28;20030;-70
2022/04/13 15:48:04;;;;;;;15.82;3.60;;;;;;;15.44;100.00;101686.78;10426028;28;20067;-70
2022/04/13 15:53:05;;;;;;;6.30;2.35;;;;;;;15.62;100.00;101688.25;10426816;28;20057;-70
2022/04/13 15:58:05;;;;;;;8.68;2.95;;;;;;;15.84;100.00;101693.69;10409300;28;20026;-71
2022/04/13 16:03:06;;;;;;;6.38;2.10;;;;;;;15.76;100.00;101691.44;10426873;28;20033;-70
2022/04/13 16:08:07;;;;;;;12.85;2.85;;;;;;;15.65;100.00;101696.06;10431599;28;20389;-70
2022/04/13 16:13:07;;;;;;;6.53;2.30;;;;;;;15.41;100.00;101690.06;10434903;28;20033;-70
2022/04/13 16:18:08;;;;;;;6.78;2.08;;;;;;;15.47;100.00;101700.09;10433276;28;20028;-70
2022/04/13 16:23:10;;;;;;;8.13;2.47;;;;;;;15.38;100.00;101696.16;10434127;28;20037;-70
2022/04/13 16:28:11;;;;;;;7.80;2.33;;;;;;;15.31;100.00;101701.09;10432431;28;20030;-70
2022/04/13 16:33:14;;;;;;;7.00;2.47;;;;;;;15.23;100.00;101704.34;10416184;28;20053;-70
2022/04/13 16:38:15;;;;;;;8.82;3.20;;;;;;;15.17;100.00;101716.50;10434191;28;20041;-70
2022/04/13 16:43:19;;;;;;;12.85;3.10;;;;;;;15.11;100.00;101713.72;10433420;28;20038;-70
2022/04/13 16:48:19;;;;;;;10.57;3.03;;;;;;;15.12;100.00;101709.00;10433603;28;20040;-70
2022/04/13 16:53:20;;;;;;;8.13;2.92;;;;;;;15.16;100.00;101710.13;10432002;28;20025;-70
2022/04/13 16:58:20;;;;;;;7.75;2.63;;;;;;;15.09;100.00;101712.31;10426162;28;20469;-71
2022/04/13 17:03:21;;;;;;;9.75;2.90;;;;;;;15.12;100.00;101726.47;10428117;28;20507;-70
2022/04/13 17:08:21;;;;;;;6.32;3.08;;;;;;;15.11;100.00;101740.59;10433562;28;20045;-69
2022/04/13 17:13:22;;;;;;;6.47;2.67;;;;;;;15.10;100.00;101741.69;10423511;28;20036;-70
2022/04/13 17:18:22;;;;;;;6.03;2.95;;;;;;;15.02;100.00;101743.00;10397388;28;20158;-70
2022/04/13 17:23:23;;;;;;;5.85;2.35;;;;;;;14.79;100.00;101730.31;10391876;28;20533;-69
2022/04/13 17:28:23;;;;;;;8.65;3.03;;;;;;;14.53;100.00;101729.16;10390524;28;20037;-70
2022/04/13 17:33:24;;;;;;;4.90;2.00;;;;;;;14.47;100.00;101746.81;10392585;28;20509;-69
2022/04/13 17:38:26;;;;;;;5.47;2.97;;;;;;;14.33;100.00;101751.94;10401417;28;20527;-69
2022/04/13 17:43:26;;;;;;;6.38;2.67;;;;;;;14.20;100.00;101755.94;10414671;28;20029;-69
2022/04/13 17:48:27;;;;;;;6.10;2.22;;;;;;;14.03;100.00;101752.38;10428855;28;20022;-70
2022/04/13 17:53:27;;;;;;;7.70;2.75;;;;;;;13.86;100.00;101758.78;10387277;28;20053;-70
2022/04/13 17:58:28;;;;;;;7.68;2.70;;;;;;;13.65;100.00;101751.28;10409841;28;20053;-70
2022/04/13 18:03:28;;;;;;;6.38;2.67;;;;;;;13.56;100.00;101764.72;10430627;28;20041;-69
2022/04/13 18:08:29;;;;;;;7.88;2.92;;;;;;;13.49;100.00;101773.16;10430936;28;20034;-70
2022/04/13 18:13:29;;;;;;;6.18;2.90;;;;;;;13.40;100.00;101771.94;10431453;28;20037;-70
2022/04/13 18:18:30;;;;;;;7.20;3.13;;;;;;;13.27;100.00;101772.22;10431810;28;20034;-70
2022/04/13 18:23:30;;;;;;;5.60;2.83;;;;;;;13.15;100.00;101765.91;10430754;28;20049;-70
2022/04/13 18:28:31;;;;;;;11.07;3.65;;;;;;;13.06;100.00;101788.47;10428330;28;20041;-69
2022/04/13 18:33:38;;;;;;;8.82;3.20;;;;;;;12.99;100.00;101804.34;10430934;28;20052;-70
2022/04/13 18:38:38;;;;;;;11.77;3.47;;;;;;;12.88;100.00;101799.72;10413504;28;20037;-69
2022/04/13 18:43:39;;;;;;;11.65;3.97;;;;;;;12.76;100.00;101804.47;10430332;28;20420;-69
2022/04/13 18:48:39;;;;;;;10.43;4.53;;;;;;;12.62;100.00;101804.75;10430016;28;20041;-70
2022/04/13 18:53:39;;;;;;;13.13;4.53;;;;;;;12.51;100.00;101819.44;10427799;28;20017;-70
2022/04/13 18:58:40;;;;;;;16.92;5.50;;;;;;;12.34;100.00;101812.97;10429950;28;20113;-70
2022/04/13 19:03:41;;;;;;;8.57;4.25;;;;;;;12.38;100.00;101825.22;10430317;28;20040;-69
2022/04/13 19:08:50;;;;;;;8.43;4.50;;;;;;;12.32;100.00;101833.41;10429293;28;20033;-70
2022/04/13 19:13:51;;;;;;;9.48;4.95;;;;;;;12.27;100.00;101827.75;10417686;28;20493;-69
2022/04/13 19:18:52;;;;;;;11.23;4.63;;;;;;;12.18;100.00;101848.53;10415979;28;20029;-70
2022/04/13 19:23:52;;;;;;;12.15;5.38;;;;;;;12.10;100.00;101843.38;10415920;28;20477;-70
2022/04/13 19:28:53;;;;;;;15.75;5.40;;;;;;;12.01;100.00;101842.06;10412009;28;20025;-69
2022/04/13 19:33:53;;;;;;;10.32;5.25;;;;;;;11.89;100.00;101845.66;10413659;28;20037;-69
2022/04/13 19:38:54;;;;;;;14.73;5.57;;;;;;;11.81;100.00;101848.75;10413091;28;20037;-70
2022/04/13 19:43:55;;;;;;;13.07;6.25;;;;;;;11.68;100.00;101860.03;10412461;28;20037;-70
2022/04/13 19:48:55;;;;;;;15.15;6.47;;;;;;;11.60;100.00;101863.13;10412864;28;20018;-69
2022/04/13 19:53:56;;;;;;;14.45;6.53;;;;;;;11.60;100.00;101874.16;10411152;28;20041;-70
2022/04/13 19:58:56;;;;;;;20.25;7.60;;;;;;;11.56;100.00;101873.78;10412720;28;20053;-70
2022/04/13 20:03:59;;;;;;;22.50;11.57;;;;;;;11.51;100.00;101896.56;10412951;28;20045;-69
2022/04/13 20:09:00;;;;;;;20.70;11.35;;;;;;;11.55;100.00;101902.41;10412598;28;20041;-70
2022/04/13 20:14:01;;;;;;;24.95;12.15;;;;;;;11.54;100.00;101897.16;10411274;28;20043;-70
2022/04/13 20:19:01;;;;;;;20.00;10.15;;;;;;;11.43;100.00;101887.75;10412068;28;20640;-70
2022/04/13 20:24:02;;;;;;;17.08;9.52;;;;;;;11.47;100.00;101903.63;10409956;28;20029;-70
2022/04/13 20:29:02;;;;;;;18.63;9.15;;;;;;;11.37;100.00;101903.34;10411890;28;20189;-70
2022/04/13 20:34:03;;;;;;;21.02;12.05;;;;;;;11.30;100.00;101916.38;10412113;28;20718;-70
2022/04/13 20:39:04;;;;;;;21.75;11.75;;;;;;;11.24;100.00;101914.56;10412056;28;20057;-69
2022/04/13 20:44:05;;;;;;;20.70;11.35;;;;;;;11.14;100.00;101919.78;10426282;28;20047;-70
2022/04/13 20:49:05;;;;;;;20.25;10.57;;;;;;;11.07;100.00;101920.72;10426351;28;20041;-70
2022/04/13 20:54:06;;;;;;;22.20;11.68;;;;;;;10.99;100.00;101928.44;10428410;28;20029;-70
2022/04/13 20:59:06;;;;;;;23.67;11.55;;;;;;;10.96;100.00;101932.53;10434240;28;20045;-70
2022/04/13 21:04:07;;;;;;;22.75;11.35;;;;;;;10.89;100.00;101932.59;10434768;28;20044;-70
2022/04/13 21:09:07;;;;;;;23.65;11.80;;;;;;;10.79;100.00;101924.03;10433908;28;20029;-70
2022/04/13 21:14:08;;;;;;;20.02;11.40;;;;;;;10.74;100.00;101921.13;10433637;28;20610;-70
2022/04/13 21:19:08;;;;;;;22.52;11.73;;;;;;;10.70;100.00;101928.16;10434089;28;20029;-70
2022/04/13 21:24:10;;;;;;;23.70;12.65;;;;;;;10.60;100.00;101931.44;10433541;28;20079;-70
2022/04/13 21:29:12;;;;;;;25.83;12.90;;;;;;;10.57;100.00;101929.16;10433777;28;20037;-70
2022/04/13 21:34:13;;;;;;;25.58;13.63;;;;;;;10.54;100.00;101926.84;10433768;28;20053;-70
2022/04/13 21:39:13;;;;;;;23.95;12.38;;;;;;;10.49;100.00;101930.28;10433204;28;20045;-70
2022/04/13 21:44:14;;;;;;;26.67;14.15;;;;;;;10.22;100.00;101888.41;10432213;28;20044;-70
2022/04/13 21:49:14;;;;;;;18.85;12.55;;;;;;;10.33;100.00;101919.03;10423247;28;20065;-70
2022/04/13 21:54:15;;;;;;;16.08;11.30;;;;;;;10.23;100.00;101920.38;10390708;28;20045;-70
2022/04/13 21:59:15;;;;;;;21.42;11.90;;;;;;;10.15;100.00;101923.41;10391335;28;20026;-70
2022/04/13 22:04:16;;;;;;;21.70;10.93;;;;;;;10.10;100.00;101918.56;10389176;28;20544;-70
2022/04/13 22:09:17;;;;;;;22.73;12.27;;;;;;;9.96;100.00;101917.00;10391386;28;20033;-69
2022/04/13 22:14:17;;;;;;;17.98;12.30;;;;;;;9.94;100.00;101921.88;10390657;28;20037;-70
2022/04/13 22:19:17;;;;;;;24.75;13.07;;;;;;;9.92;100.00;101923.19;10390674;28;20025;-71
2022/04/13 22:24:18;;;;;;;20.70;12.90;;;;;;;9.84;100.00;101919.66;10390781;28;20113;-69
2022/04/13 22:29:18;;;;;;;22.58;13.48;;;;;;;9.80;100.00;101921.16;10390785;28;20022;-70
2022/04/13 22:34:19;;;;;;;24.90;13.13;;;;;;;9.72;100.00;101920.59;10390122;28;20049;-70
2022/04/13 22:39:19;;;;;;;24.58;13.00;;;;;;;9.74;100.00;101922.06;10389993;28;20030;-70